Time;durP1;ratioP1;P1;durP2;ratioP2;P2;SDS_P1;SDS_P2;PMS_P1;PMS_P2;Temp;Humidity;BMP_temperature;BMP_pressure;BME280_temperature;BME280_humidity;BME280_pressure;Samples;Min_cycle;Max_cycle;Signal;HPM_P1;HPM_P2
2023/01/09 00:00:21;;;;;;;1.55;0.77;;;;;;;8.20;89.26;97711.25;4989476;28;20074;-85
2023/01/09 00:02:47;;;;;;;3.55;0.55;;;;;;;8.18;89.29;97703.41;4987490;28;20072;-85
2023/01/09 00:05:15;;;;;;;2.10;0.60;;;;;;;8.14;89.26;97715.97;4989644;28;20023;-85
2023/01/09 00:07:40;;;;;;;2.80;1.20;;;;;;;8.18;89.65;97727.03;4988739;28;20054;-85
2023/01/09 00:10:07;;;;;;;1.50;0.88;;;;;;;8.14;89.17;97717.88;4989983;28;20073;-84
2023/01/09 00:12:33;;;;;;;1.38;0.77;;;;;;;8.20;89.05;97726.75;4988949;28;20038;-85
2023/01/09 00:14:58;;;;;;;1.45;0.55;;;;;;;8.13;88.86;97713.56;4989532;28;20165;-84
2023/01/09 00:17:23;;;;;;;3.22;0.60;;;;;;;8.06;88.84;97717.47;4988067;28;20038;-84
2023/01/09 00:19:49;;;;;;;1.55;0.82;;;;;;;8.15;88.90;97714.88;4989221;28;20439;-85
2023/01/09 00:22:14;;;;;;;1.67;0.50;;;;;;;8.10;88.42;97717.66;4989543;28;20049;-85
2023/01/09 00:24:39;;;;;;;1.02;0.40;;;;;;;8.18;88.39;97724.31;4989283;28;20161;-83
2023/01/09 00:27:05;;;;;;;2.10;0.80;;;;;;;8.24;88.10;97709.53;4987966;28;20030;-83
2023/01/09 00:29:31;;;;;;;2.47;0.80;;;;;;;8.11;88.54;97718.47;4988768;28;20046;-83
2023/01/09 00:31:56;;;;;;;1.40;0.60;;;;;;;8.02;87.79;97721.88;4989219;28;20026;-83
2023/01/09 00:34:22;;;;;;;0.77;0.32;;;;;;;8.05;88.43;97715.84;4989068;28;20429;-84
2023/01/09 00:36:47;;;;;;;1.98;1.02;;;;;;;8.01;87.86;97723.00;4988915;28;20042;-87
2023/01/09 00:39:12;;;;;;;0.60;0.20;;;;;;;8.01;87.60;97719.47;4989027;28;20042;-88
2023/01/09 00:41:41;;;;;;;0.90;0.68;;;;;;;7.90;87.84;97725.06;4990358;28;20141;-86
2023/01/09 00:44:12;;;;;;;0.28;0.28;;;;;;;8.04;87.93;97733.25;4992999;28;20048;-85
2023/01/09 00:46:41;;;;;;;0.82;0.20;;;;;;;7.91;87.42;97731.31;4992168;28;20057;-86
2023/01/09 00:49:07;;;;;;;0.28;0.10;;;;;;;7.94;87.60;97726.09;4992326;28;20032;-86
2023/01/09 00:51:33;;;;;;;0.90;0.35;;;;;;;7.87;87.62;97725.63;4992563;28;20062;-84
2023/01/09 00:54:00;;;;;;;0.20;0.20;;;;;;;7.69;88.10;97738.13;4975167;28;20065;-84
2023/01/09 00:56:25;;;;;;;0.73;0.30;;;;;;;7.68;88.34;97728.41;4991941;28;20468;-87
2023/01/09 00:58:51;;;;;;;2.65;0.30;;;;;;;7.65;88.33;97735.22;4992545;28;20971;-84
2023/01/09 01:01:17;;;;;;;0.70;0.25;;;;;;;7.76;88.75;97730.44;4993136;28;20061;-87
2023/01/09 01:03:42;;;;;;;1.15;0.20;;;;;;;7.82;88.33;97733.88;4991730;28;20523;-85
2023/01/09 01:08:51;;;;;;;1.05;0.30;;;;;;;7.93;88.13;97737.25;4991201;28;20290;-85
2023/01/09 01:11:17;;;;;;;0.50;0.30;;;;;;;7.89;87.60;97742.44;4991635;28;20035;-85
2023/01/09 01:13:42;;;;;;;0.93;0.40;;;;;;;7.87;87.67;97741.13;4991780;28;20483;-85
2023/01/09 01:16:10;;;;;;;0.73;0.17;;;;;;;7.81;88.16;97743.91;4990923;28;20038;-84
2023/01/09 01:18:36;;;;;;;0.57;0.35;;;;;;;7.95;88.18;97740.47;4991660;28;20306;-85
2023/01/09 01:21:09;;;;;;;0.63;0.40;;;;;;;7.95;87.99;97743.19;4992073;28;20101;-86
2023/01/09 01:23:35;;;;;;;0.68;0.13;;;;;;;7.93;87.94;97745.38;4991832;28;20030;-85
2023/01/09 01:26:15;;;;;;;0.82;0.22;;;;;;;7.85;87.79;97743.34;4990830;28;20038;-84
2023/01/09 01:28:41;;;;;;;0.93;0.20;;;;;;;7.85;87.69;97748.75;4991495;28;20034;-85
2023/01/09 01:31:07;;;;;;;0.50;0.20;;;;;;;7.74;87.78;97751.63;4991794;28;20498;-84
2023/01/09 01:33:34;;;;;;;0.35;0.20;;;;;;;7.76;88.37;97746.72;4991143;28;20026;-84
2023/01/09 01:36:00;;;;;;;1.17;0.40;;;;;;;7.82;87.71;97750.16;4991187;28;20037;-85
2023/01/09 01:38:26;;;;;;;0.93;0.30;;;;;;;7.75;87.86;97745.09;4990996;28;20484;-88
2023/01/09 01:40:52;;;;;;;1.00;0.38;;;;;;;7.72;87.64;97740.28;4991210;28;20155;-83
2023/01/09 01:43:17;;;;;;;1.13;0.22;;;;;;;7.64;86.94;97746.38;4991262;28;20565;-87
2023/01/09 01:45:43;;;;;;;0.43;0.30;;;;;;;7.66;86.95;97757.72;4991123;28;20042;-85
2023/01/09 01:48:13;;;;;;;0.53;0.37;;;;;;;7.63;86.21;97752.91;4991291;28;20753;-84
2023/01/09 01:50:43;;;;;;;0.52;0.10;;;;;;;7.51;86.30;97754.13;4991537;28;20583;-85
2023/01/09 01:53:14;;;;;;;0.55;0.30;;;;;;;7.54;85.99;97756.28;4990295;28;20030;-85
2023/01/09 01:56:02;;;;;;;0.22;0.20;;;;;;;7.66;86.06;97768.56;4990447;28;20507;-86
2023/01/09 01:58:28;;;;;;;0.85;0.30;;;;;;;7.61;86.34;97760.53;4991254;28;20494;-85
2023/01/09 02:00:53;;;;;;;2.75;0.40;;;;;;;7.48;86.53;97760.94;4991878;28;20035;-85
2023/01/09 02:03:24;;;;;;;2.70;0.50;;;;;;;7.65;85.82;97762.34;4990879;28;20039;-85
2023/01/09 02:05:50;;;;;;;4.88;0.40;;;;;;;7.69;85.64;97773.41;4990886;28;20040;-86
2023/01/09 02:08:15;;;;;;;0.55;0.20;;;;;;;7.61;85.19;97774.88;4991601;28;20128;-84
2023/01/09 02:10:41;;;;;;;1.50;0.70;;;;;;;7.57;85.20;97771.94;4990997;28;20034;-84
2023/01/09 02:13:08;;;;;;;2.40;0.30;;;;;;;7.55;85.71;97774.16;4991237;28;20128;-86
2023/01/09 02:16:13;;;;;;;0.93;0.50;;;;;;;7.55;85.29;97773.34;4989499;28;20116;-86
2023/01/09 02:18:52;;;;;;;1.00;0.50;;;;;;;7.53;85.62;97780.97;4952925;28;20046;-84
2023/01/09 02:22:06;;;;;;;0.30;0.20;;;;;;;7.54;85.37;97786.09;4990416;28;20064;-86
2023/01/09 02:25:13;;;;;;;2.33;0.50;;;;;;;7.52;85.75;97782.06;4967316;28;20042;-86
2023/01/09 02:28:16;;;;;;;0.38;0.20;;;;;;;7.59;85.32;97794.16;4989764;28;20078;-85
2023/01/09 02:31:04;;;;;;;0.93;0.30;;;;;;;7.72;85.51;97789.09;4990337;28;20041;-84
2023/01/09 02:33:57;;;;;;;0.70;0.20;;;;;;;7.76;85.08;97800.97;4990471;28;20053;-85
2023/01/09 02:37:00;;;;;;;1.20;0.28;;;;;;;7.63;85.35;97807.16;4989684;28;20594;-85
2023/01/09 02:39:32;;;;;;;0.65;0.20;;;;;;;7.67;85.92;97806.25;4990266;28;20042;-86
2023/01/09 02:42:25;;;;;;;3.28;0.40;;;;;;;7.75;85.16;97801.28;4989787;28;20065;-86
2023/01/09 02:44:51;;;;;;;2.15;1.27;;;;;;;7.72;85.56;97799.94;4987424;28;20125;-84
2023/01/09 02:47:16;;;;;;;3.45;0.52;;;;;;;7.68;85.14;97799.75;4989337;28;20519;-86
2023/01/09 02:49:47;;;;;;;2.63;0.63;;;;;;;7.70;85.46;97799.44;4990141;28;20476;-84
2023/01/09 02:52:40;;;;;;;2.08;0.47;;;;;;;7.62;85.78;97794.66;4990402;28;20026;-85
2023/01/09 02:55:13;;;;;;;2.42;0.57;;;;;;;7.49;86.31;97802.44;4990371;28;20034;-85
2023/01/09 02:57:53;;;;;;;0.40;0.40;;;;;;;7.65;86.35;97800.31;4987948;28;20038;-84
2023/01/09 03:00:24;;;;;;;3.42;1.00;;;;;;;7.64;85.56;97795.19;4989965;28;20182;-86
2023/01/09 03:03:02;;;;;;;2.40;0.65;;;;;;;7.70;85.56;97800.25;4971885;28;20031;-86
2023/01/09 03:05:42;;;;;;;4.00;1.67;;;;;;;7.63;85.15;97790.88;4989765;28;20537;-86
2023/01/09 03:08:14;;;;;;;2.80;0.70;;;;;;;7.70;85.82;97788.59;4989975;28;20054;-87
2023/01/09 03:10:49;;;;;;;1.08;0.65;;;;;;;7.59;85.44;97788.72;4989307;28;20039;-84
2023/01/09 03:13:18;;;;;;;1.55;0.43;;;;;;;7.62;85.06;97794.66;4990271;28;20039;-85
2023/01/09 03:15:48;;;;;;;1.83;0.63;;;;;;;7.68;85.00;97797.03;4988818;28;20036;-85
2023/01/09 03:18:16;;;;;;;3.05;0.90;;;;;;;7.76;84.71;97798.25;4979887;28;20080;-84
2023/01/09 03:20:42;;;;;;;1.70;0.63;;;;;;;7.58;84.70;97800.69;4988673;28;20069;-85
2023/01/09 03:23:07;;;;;;;1.23;0.60;;;;;;;7.65;84.83;97803.03;4988740;28;20034;-86
2023/01/09 03:25:33;;;;;;;3.00;0.43;;;;;;;7.66;84.96;97815.50;4989580;28;20113;-86
2023/01/09 03:28:01;;;;;;;2.58;0.95;;;;;;;7.73;85.21;97812.41;4989793;28;20066;-84
2023/01/09 03:30:28;;;;;;;2.05;0.88;;;;;;;7.61;85.21;97822.91;4989720;28;20448;-85
2023/01/09 03:32:54;;;;;;;2.72;1.17;;;;;;;7.71;85.02;97828.97;4989721;28;20420;-85
2023/01/09 03:35:20;;;;;;;2.83;0.93;;;;;;;7.66;84.94;97834.50;4972005;28;20058;-85
2023/01/09 03:37:45;;;;;;;2.03;1.10;;;;;;;7.55;85.57;97836.53;4988652;28;20062;-84
2023/01/09 03:40:11;;;;;;;3.55;1.50;;;;;;;7.54;85.45;97847.66;4988888;28;20484;-85
2023/01/09 03:42:36;;;;;;;3.42;1.63;;;;;;;7.59;85.76;97845.69;4989624;28;20041;-86
2023/01/09 03:45:02;;;;;;;2.90;1.00;;;;;;;7.64;85.14;97860.28;4989818;28;20036;-86
2023/01/09 03:47:27;;;;;;;6.35;1.33;;;;;;;7.66;85.39;97867.03;4988846;28;20034;-86
2023/01/09 03:49:53;;;;;;;3.65;1.40;;;;;;;7.71;85.35;97863.44;4989469;28;20034;-84
2023/01/09 03:52:18;;;;;;;3.57;1.13;;;;;;;7.63;84.73;97856.75;4989510;28;20456;-85
2023/01/09 03:54:43;;;;;;;1.90;1.15;;;;;;;7.60;84.80;97860.06;4972105;28;20325;-88
2023/01/09 03:57:09;;;;;;;3.13;1.03;;;;;;;7.63;84.85;97858.69;4988800;28;20093;-85
2023/01/09 03:59:34;;;;;;;3.35;1.42;;;;;;;7.61;84.28;97855.44;4990388;28;20270;-84
2023/01/09 04:01:59;;;;;;;4.22;1.83;;;;;;;7.68;84.42;97864.03;4989286;28;20460;-86
2023/01/09 04:04:24;;;;;;;4.22;1.27;;;;;;;7.69;83.89;97862.91;4989167;28;20069;-84
2023/01/09 04:06:50;;;;;;;2.93;1.13;;;;;;;7.83;84.03;97871.94;4988740;28;20053;-85
2023/01/09 04:09:15;;;;;;;2.88;1.20;;;;;;;7.88;83.20;97872.97;4989033;28;20261;-84
2023/01/09 04:11:40;;;;;;;3.72;1.20;;;;;;;7.72;82.78;97873.19;4989006;28;20030;-85
2023/01/09 04:14:06;;;;;;;3.17;1.00;;;;;;;7.65;83.30;97876.25;4988833;28;20046;-86
2023/01/09 04:16:31;;;;;;;4.20;1.60;;;;;;;7.76;83.39;97876.94;4993046;28;20272;-86
2023/01/09 04:18:56;;;;;;;7.37;1.53;;;;;;;7.69;82.73;97871.03;4995845;28;20653;-85
2023/01/09 04:21:21;;;;;;;5.10;1.00;;;;;;;7.54;82.59;97869.38;4995748;28;20321;-86
2023/01/09 04:23:47;;;;;;;5.57;1.58;;;;;;;7.63;82.07;97873.03;4995457;28;20153;-84
2023/01/09 04:26:12;;;;;;;4.95;1.00;;;;;;;7.71;81.87;97874.28;4994903;28;20490;-84
2023/01/09 04:28:37;;;;;;;6.45;1.30;;;;;;;7.61;82.16;97877.16;4994946;28;20481;-85
2023/01/09 04:31:04;;;;;;;3.80;0.90;;;;;;;7.50;82.23;97885.41;4994934;28;20036;-85
2023/01/09 04:33:29;;;;;;;3.22;1.00;;;;;;;7.52;81.79;97877.78;4995127;28;20370;-85
2023/01/09 04:35:55;;;;;;;7.30;1.27;;;;;;;7.62;81.60;97884.19;4993992;28;20109;-84
2023/01/09 04:38:20;;;;;;;7.90;1.25;;;;;;;7.48;80.81;97882.97;4995255;28;20403;-84
2023/01/09 04:40:47;;;;;;;4.55;1.23;;;;;;;7.37;81.77;97881.50;4994920;28;20061;-84
2023/01/09 04:43:12;;;;;;;3.67;1.48;;;;;;;7.42;81.39;97884.16;4995617;28;20034;-85
2023/01/09 04:45:38;;;;;;;4.13;1.83;;;;;;;7.33;81.27;97894.81;4994726;28;20065;-85
2023/01/09 04:48:03;;;;;;;5.90;1.47;;;;;;;7.30;81.12;97891.88;4995091;28;20037;-86
2023/01/09 04:50:28;;;;;;;5.50;1.73;;;;;;;7.30;81.49;97886.47;4995513;28;20303;-85
2023/01/09 04:52:55;;;;;;;4.75;1.10;;;;;;;7.32;81.34;97879.63;4995434;28;20030;-84
2023/01/09 04:55:20;;;;;;;7.22;0.98;;;;;;;7.31;81.29;97878.03;4994973;28;20438;-84
2023/01/09 04:57:46;;;;;;;4.03;1.17;;;;;;;7.19;81.20;97891.19;4994360;28;20121;-84
2023/01/09 05:00:11;;;;;;;3.90;1.80;;;;;;;7.26;81.35;97890.84;4995266;28;20045;-84
2023/01/09 05:02:37;;;;;;;5.47;1.27;;;;;;;7.12;81.48;97886.91;4994231;28;20256;-84
2023/01/09 05:05:04;;;;;;;7.32;1.77;;;;;;;7.19;81.71;97893.91;4995595;28;20129;-85
2023/01/09 05:07:29;;;;;;;3.55;1.10;;;;;;;7.15;81.52;97901.81;4994060;28;20045;-85
2023/01/09 05:09:55;;;;;;;3.17;1.03;;;;;;;7.10;81.98;97904.56;4995095;28;20054;-83
2023/01/09 05:12:20;;;;;;;6.87;1.57;;;;;;;7.15;81.88;97911.81;4995158;28;20256;-84
2023/01/09 05:14:45;;;;;;;5.07;1.13;;;;;;;7.10;81.71;97910.78;4977369;28;20264;-84
2023/01/09 05:17:10;;;;;;;4.43;1.00;;;;;;;7.02;81.66;97913.34;4994711;28;20045;-84
2023/01/09 05:19:36;;;;;;;4.22;1.80;;;;;;;7.06;82.04;97904.31;4995068;28;20396;-85
2023/01/09 05:22:02;;;;;;;5.60;1.50;;;;;;;7.08;81.78;97915.69;4994946;28;20034;-84
2023/01/09 05:24:27;;;;;;;2.72;0.77;;;;;;;7.16;81.13;97924.31;4995119;28;20049;-83
2023/01/09 05:26:52;;;;;;;4.85;0.98;;;;;;;7.08;81.43;97923.81;4994070;28;20654;-86
2023/01/09 05:29:17;;;;;;;3.00;1.10;;;;;;;7.16;81.55;97921.59;4991793;28;20038;-85
2023/01/09 05:31:43;;;;;;;7.28;2.22;;;;;;;7.26;81.65;97924.16;4991472;28;20073;-84
2023/01/09 05:34:08;;;;;;;5.72;2.40;;;;;;;7.34;81.35;97936.31;4991228;28;20034;-85
2023/01/09 05:36:33;;;;;;;3.08;1.00;;;;;;;7.24;81.17;97931.81;4991593;28;20519;-85
2023/01/09 05:38:59;;;;;;;5.93;1.17;;;;;;;7.29;80.79;97933.63;4992093;28;20027;-85
2023/01/09 05:41:25;;;;;;;2.47;0.95;;;;;;;7.30;81.03;97930.63;4991374;28;20108;-85
2023/01/09 05:43:50;;;;;;;2.97;1.02;;;;;;;7.25;80.46;97927.97;4991834;28;20030;-84
2023/01/09 05:46:15;;;;;;;4.10;0.73;;;;;;;7.17;80.75;97931.31;4991377;28;20038;-85
2023/01/09 05:48:41;;;;;;;3.20;0.98;;;;;;;7.18;80.65;97938.38;4992207;28;20101;-86
2023/01/09 05:51:06;;;;;;;3.72;0.75;;;;;;;7.12;80.52;97935.69;4991997;28;20022;-85
2023/01/09 05:53:31;;;;;;;3.65;1.48;;;;;;;7.15;79.62;97933.50;4991831;28;20088;-87
2023/01/09 05:55:57;;;;;;;6.97;0.70;;;;;;;7.19;80.09;97931.84;4991383;28;20044;-84
2023/01/09 05:58:22;;;;;;;3.10;1.03;;;;;;;7.27;79.43;97947.47;4991652;28;20373;-85
2023/01/09 06:00:48;;;;;;;1.95;0.98;;;;;;;7.11;79.19;97936.81;4991991;28;20256;-86
2023/01/09 06:03:13;;;;;;;4.53;0.73;;;;;;;7.21;78.99;97929.66;4991143;28;20033;-84
2023/01/09 06:05:38;;;;;;;3.55;1.05;;;;;;;7.21;79.28;97937.78;4991195;28;20339;-86
2023/01/09 06:08:04;;;;;;;1.23;0.40;;;;;;;7.08;79.03;97934.66;4991528;28;20046;-84
2023/01/09 06:10:29;;;;;;;7.72;1.52;;;;;;;6.99;79.42;97925.53;4991165;28;20276;-84
2023/01/09 06:12:54;;;;;;;3.58;1.08;;;;;;;7.15;79.41;97933.50;4991205;28;20041;-83
2023/01/09 06:15:20;;;;;;;4.80;1.17;;;;;;;7.20;78.92;97941.59;4991300;28;20333;-86
2023/01/09 06:17:45;;;;;;;9.05;2.45;;;;;;;7.19;78.53;97939.97;4990747;28;20045;-84
2023/01/09 06:20:11;;;;;;;4.10;0.90;;;;;;;7.12;78.60;97935.69;4991194;28;20128;-86
2023/01/09 06:22:36;;;;;;;8.48;1.73;;;;;;;7.17;79.02;97944.88;4990771;28;20100;-84
2023/01/09 06:25:02;;;;;;;2.60;0.93;;;;;;;7.14;79.59;97948.97;4989927;28;20033;-85
2023/01/09 06:27:27;;;;;;;2.35;0.98;;;;;;;7.20;79.36;97952.44;4990381;28;20312;-84
2023/01/09 06:29:52;;;;;;;9.15;1.90;;;;;;;7.01;80.12;97955.88;4990771;28;20041;-85
2023/01/09 06:32:18;;;;;;;4.57;0.80;;;;;;;7.04;80.25;97947.16;4990183;28;20034;-86
2023/01/09 06:34:43;;;;;;;3.27;1.00;;;;;;;7.03;80.28;97948.28;4990388;28;20062;-85
2023/01/09 06:37:09;;;;;;;5.00;0.70;;;;;;;6.96;80.79;97948.59;4990103;28;20268;-84
2023/01/09 06:39:34;;;;;;;2.45;0.90;;;;;;;6.95;81.12;97957.81;4989871;28;20288;-85
2023/01/09 06:41:59;;;;;;;7.53;1.20;;;;;;;6.94;81.20;97944.53;4990264;28;20476;-84
2023/01/09 06:44:25;;;;;;;6.15;1.58;;;;;;;6.88;81.45;97950.03;4990541;28;20307;-86
2023/01/09 06:46:50;;;;;;;2.95;0.82;;;;;;;7.00;81.62;97949.63;4989631;28;20035;-83
2023/01/09 06:49:16;;;;;;;3.80;0.67;;;;;;;6.93;81.80;97954.59;4990440;28;20113;-86
2023/01/09 06:51:42;;;;;;;2.90;0.68;;;;;;;7.01;82.79;97955.88;4989736;28;20282;-86
2023/01/09 06:54:07;;;;;;;3.65;0.90;;;;;;;6.99;82.33;97952.63;4990801;28;20034;-86
2023/01/09 06:56:32;;;;;;;2.50;0.83;;;;;;;7.02;82.93;97962.09;4989355;28;20038;-86
2023/01/09 06:58:58;;;;;;;2.78;0.73;;;;;;;7.09;82.55;97951.72;4990510;28;20283;-85
2023/01/09 07:01:23;;;;;;;5.82;0.82;;;;;;;7.01;82.60;97955.88;4989962;28;20109;-85
2023/01/09 07:03:48;;;;;;;2.70;0.80;;;;;;;7.08;82.80;97950.09;4989426;28;20034;-85
2023/01/09 07:06:14;;;;;;;12.40;1.02;;;;;;;7.08;82.93;97955.53;4989478;28;20038;-80
2023/01/09 07:08:39;;;;;;;138.23;13.10;;;;;;;7.19;83.29;97961.66;4990486;28;20045;-85
2023/01/09 07:11:04;;;;;;;10.15;1.17;;;;;;;7.12;82.92;97951.97;4990489;28;20448;-86
2023/01/09 07:13:30;;;;;;;1.98;0.50;;;;;;;7.13;82.11;97960.91;4989903;28;20042;-86
2023/01/09 07:15:55;;;;;;;3.50;0.60;;;;;;;7.03;82.44;97948.28;4989894;28;20067;-84
2023/01/09 07:18:20;;;;;;;2.63;0.63;;;;;;;6.97;82.71;97952.13;4990057;28;20038;-84
2023/01/09 07:20:46;;;;;;;3.27;1.37;;;;;;;6.88;82.33;97957.34;4990556;28;20264;-84
2023/01/09 07:23:12;;;;;;;4.35;1.10;;;;;;;6.83;82.82;97939.25;4989743;28;20253;-87
2023/01/09 07:25:38;;;;;;;23.73;2.20;;;;;;;6.81;82.47;97946.84;4988855;28;20026;-83
2023/01/09 07:28:03;;;;;;;3.83;0.73;;;;;;;6.89;82.49;97965.16;4990573;28;20030;-86
2023/01/09 07:30:28;;;;;;;5.78;1.77;;;;;;;6.79;82.57;97953.63;4989928;28;20038;-86
2023/01/09 07:32:54;;;;;;;6.90;0.80;;;;;;;6.77;83.00;97951.22;4990239;28;20030;-84
2023/01/09 07:35:19;;;;;;;2.22;0.47;;;;;;;6.85;83.00;97957.91;4990117;28;20043;-85
2023/01/09 07:37:45;;;;;;;2.70;0.90;;;;;;;6.86;82.80;97951.38;4989086;28;20480;-84
2023/01/09 07:40:11;;;;;;;5.97;0.85;;;;;;;6.93;82.02;97953.78;4989378;28;20042;-85
2023/01/09 07:42:36;;;;;;;3.05;0.85;;;;;;;6.83;81.93;97955.50;4989911;28;20050;-86
2023/01/09 07:45:02;;;;;;;4.10;1.55;;;;;;;6.84;82.25;97959.81;4990299;28;20034;-85
2023/01/09 07:47:27;;;;;;;4.40;1.42;;;;;;;6.87;82.30;97961.97;4992626;28;20730;-85
2023/01/09 07:49:52;;;;;;;4.53;0.87;;;;;;;6.90;82.07;97965.97;4989593;28;20097;-85
2023/01/09 07:52:17;;;;;;;1.98;0.68;;;;;;;6.89;81.64;97959.75;4989264;28;20350;-85
2023/01/09 07:54:43;;;;;;;1.43;0.77;;;;;;;6.87;81.58;97959.25;4989618;28;20030;-85
2023/01/09 07:57:08;;;;;;;3.03;0.82;;;;;;;6.88;81.66;97962.75;4988372;28;20262;-85
2023/01/09 07:59:33;;;;;;;4.05;0.98;;;;;;;6.91;82.12;97964.91;4988386;28;20038;-86
2023/01/09 08:02:01;;;;;;;6.28;1.05;;;;;;;6.88;81.87;97951.91;4989747;28;20041;-88
2023/01/09 08:04:26;;;;;;;4.72;1.05;;;;;;;6.92;81.70;97965.69;4989230;28;20022;-85
2023/01/09 08:06:51;;;;;;;3.27;0.67;;;;;;;6.97;81.71;97968.38;4988049;28;20041;-84
2023/01/09 08:09:17;;;;;;;2.73;0.83;;;;;;;6.91;82.42;97966.81;4989635;28;20259;-85
2023/01/09 08:11:42;;;;;;;2.22;0.43;;;;;;;6.91;83.09;97964.09;4989322;28;20279;-87
2023/01/09 08:14:07;;;;;;;4.30;1.33;;;;;;;6.89;83.39;97977.94;4989218;28;20615;-86
2023/01/09 08:16:33;;;;;;;7.10;1.13;;;;;;;6.84;84.09;97980.66;4989174;28;20482;-87
2023/01/09 08:18:58;;;;;;;3.20;0.80;;;;;;;6.84;83.88;97995.03;4989718;28;20033;-87
2023/01/09 08:21:23;;;;;;;3.53;0.60;;;;;;;6.89;84.14;97980.63;4989219;28;20038;-86
2023/01/09 08:23:49;;;;;;;5.28;1.73;;;;;;;6.93;84.33;97973.56;4989345;28;20460;-87
2023/01/09 08:26:14;;;;;;;4.32;1.50;;;;;;;6.84;84.22;97981.47;4988658;28;20493;-87
2023/01/09 08:28:39;;;;;;;2.15;0.60;;;;;;;6.79;84.99;97981.53;4989527;28;20046;-85
2023/01/09 08:31:05;;;;;;;2.70;0.93;;;;;;;6.84;85.13;97988.78;4989287;28;20034;-87
2023/01/09 08:33:31;;;;;;;4.35;1.42;;;;;;;6.75;86.28;97988.59;4988819;28;20275;-87
2023/01/09 08:35:57;;;;;;;2.15;0.63;;;;;;;6.85;85.71;97980.41;4990749;28;20026;-85
2023/01/09 08:38:22;;;;;;;2.90;0.80;;;;;;;6.84;85.92;97984.19;4988947;28;20120;-88
2023/01/09 08:40:47;;;;;;;8.40;1.00;;;;;;;6.78;85.91;97985.31;4988399;28;20432;-87
2023/01/09 08:48:42;;;;;;;;;;;;;;;6.83;86.64;97971.75;4989779;28;20399;-85
2023/01/09 08:51:08;;;;;;;5.60;1.05;;;;;;;6.75;86.98;97986.69;4988883;28;19914;-87
2023/01/09 08:53:33;;;;;;;3.13;0.82;;;;;;;6.68;87.20;97979.97;4989126;28;20038;-86
2023/01/09 08:55:58;;;;;;;4.37;1.53;;;;;;;6.80;87.22;97977.72;4987825;28;20356;-82
2023/01/09 08:58:23;;;;;;;3.83;0.97;;;;;;;6.94;86.95;97986.00;4988339;28;20303;-88
2023/01/09 09:00:49;;;;;;;0.98;0.60;;;;;;;6.93;86.29;97989.00;4988845;28;20267;-81
2023/01/09 09:03:14;;;;;;;1.50;0.50;;;;;;;7.01;86.84;97988.38;4991154;28;20162;-86
2023/01/09 09:05:39;;;;;;;3.42;0.50;;;;;;;6.99;86.35;97985.16;4992194;28;20256;-86
2023/01/09 09:08:05;;;;;;;1.97;0.60;;;;;;;6.93;86.01;97989.00;4992421;28;20041;-85
2023/01/09 09:10:31;;;;;;;2.50;0.60;;;;;;;7.01;86.12;97982.97;4991963;28;20279;-86
2023/01/09 09:12:57;;;;;;;2.97;0.60;;;;;;;7.14;85.99;97986.13;4992407;28;20088;-81
2023/01/09 09:15:25;;;;;;;3.15;0.85;;;;;;;7.00;85.83;98003.00;4991668;28;20260;-87
2023/01/09 09:17:59;;;;;;;2.50;0.90;;;;;;;7.16;86.11;98000.19;4991679;28;20072;-87
2023/01/09 09:20:27;;;;;;;7.53;1.67;;;;;;;7.22;85.82;97996.34;4990950;28;20050;-85
2023/01/09 09:22:52;;;;;;;3.53;0.88;;;;;;;7.25;86.08;98003.88;4991464;28;20134;-85
2023/01/09 09:25:18;;;;;;;6.78;0.88;;;;;;;7.24;85.92;98010.41;4993373;28;20532;-85
2023/01/09 09:27:44;;;;;;;2.85;1.40;;;;;;;7.07;86.07;97995.38;4991491;28;20404;-87
2023/01/09 09:30:11;;;;;;;2.13;0.63;;;;;;;7.19;86.42;98019.41;4992540;28;20038;-86
2023/01/09 09:32:37;;;;;;;3.97;0.60;;;;;;;7.07;86.07;98025.19;4992036;28;20042;-88
2023/01/09 09:35:04;;;;;;;16.88;2.75;;;;;;;7.02;86.24;98022.50;4991846;28;20065;-86
2023/01/09 09:37:29;;;;;;;1.90;0.73;;;;;;;7.03;86.74;98024.16;4991394;28;20026;-88
2023/01/09 09:39:54;;;;;;;3.78;0.60;;;;;;;7.11;86.69;98031.66;4991812;28;20054;-85
2023/01/09 09:45:42;;;;;;;4.53;1.70;;;;;;;7.06;86.74;98033.63;4991471;28;20271;-85
2023/01/09 09:48:29;;;;;;;3.65;1.60;;;;;;;7.11;87.14;98031.66;4991985;28;20042;-85
2023/01/09 09:51:13;;;;;;;3.13;0.98;;;;;;;7.17;86.96;98039.75;4992018;28;20498;-84
2023/01/09 09:53:48;;;;;;;3.45;0.80;;;;;;;7.34;86.84;98047.47;4992217;28;20120;-85
2023/01/09 09:56:16;;;;;;;2.75;0.77;;;;;;;7.33;86.62;98046.66;4990887;28;20053;-87
2023/01/09 09:58:52;;;;;;;3.05;0.80;;;;;;;7.26;86.62;98056.22;4991542;28;20547;-89
2023/01/09 10:01:23;;;;;;;4.80;1.08;;;;;;;7.19;87.52;98059.22;4991187;28;20036;-87
2023/01/09 10:03:53;;;;;;;2.65;0.77;;;;;;;7.27;87.45;98057.81;4991676;28;20061;-88
2023/01/09 10:06:27;;;;;;;3.10;1.00;;;;;;;7.24;87.25;98067.34;4991253;28;20062;-87
2023/01/09 10:09:10;;;;;;;4.13;1.35;;;;;;;7.35;87.49;98078.88;4991485;28;20495;-86
2023/01/09 10:11:49;;;;;;;2.72;1.15;;;;;;;7.32;87.60;98066.69;4990841;28;20491;-86
2023/01/09 10:14:15;;;;;;;2.15;1.00;;;;;;;7.42;87.60;98063.13;4989459;28;20034;-84
2023/01/09 10:17:04;;;;;;;2.28;1.13;;;;;;;7.49;86.35;98065.47;4989143;28;20030;-86
2023/01/09 10:20:02;;;;;;;1.65;0.65;;;;;;;7.52;87.16;98055.97;4988099;28;20076;-86
2023/01/09 10:22:30;;;;;;;3.00;1.08;;;;;;;7.54;87.02;98065.44;4990050;28;20034;-86
2023/01/09 10:25:10;;;;;;;4.22;1.50;;;;;;;7.35;86.66;98066.16;4991039;28;20030;-84
2023/01/09 10:27:45;;;;;;;7.05;1.83;;;;;;;7.37;87.21;98065.84;4989765;28;20041;-85
2023/01/09 10:30:26;;;;;;;3.20;1.25;;;;;;;7.41;86.76;98071.50;4990310;28;20038;-86
2023/01/09 10:33:05;;;;;;;4.97;2.03;;;;;;;7.30;86.49;98068.88;4990762;28;20037;-86
2023/01/09 10:35:49;;;;;;;5.78;1.55;;;;;;;7.44;87.00;98071.78;4987955;28;20073;-82
2023/01/09 10:38:21;;;;;;;3.88;1.58;;;;;;;7.43;86.19;98072.84;4990829;28;20042;-85
2023/01/09 10:40:57;;;;;;;6.07;1.42;;;;;;;7.30;86.38;98076.22;4987311;28;20502;-87
2023/01/09 10:43:34;;;;;;;5.40;2.10;;;;;;;7.40;86.71;98075.31;4990711;28;20045;-88
2023/01/09 10:46:04;;;;;;;3.65;1.13;;;;;;;7.41;86.19;98071.50;4989982;28;20270;-85
2023/01/09 10:48:34;;;;;;;4.40;1.10;;;;;;;7.39;86.13;98073.69;4990042;28;20040;-86
2023/01/09 10:50:59;;;;;;;4.20;1.35;;;;;;;7.30;86.48;98079.72;4989968;28;20044;-85
2023/01/09 10:53:35;;;;;;;2.83;0.93;;;;;;;7.31;85.71;98072.41;4990906;28;20380;-85
2023/01/09 10:56:18;;;;;;;3.40;0.85;;;;;;;7.42;85.90;98076.66;4989358;28;20042;-84
2023/01/09 10:58:44;;;;;;;8.77;1.27;;;;;;;7.44;85.56;98079.91;4990326;28;20400;-85
2023/01/09 11:01:09;;;;;;;5.97;2.47;;;;;;;7.40;85.23;98083.47;4991002;28;20042;-82
2023/01/09 11:03:36;;;;;;;2.78;0.65;;;;;;;7.59;85.07;98081.66;4990820;28;20129;-83
2023/01/09 11:06:02;;;;;;;2.20;0.60;;;;;;;7.70;84.47;98084.25;4989850;28;20038;-86
2023/01/09 11:08:40;;;;;;;6.05;2.05;;;;;;;7.61;84.74;98080.56;4991291;28;20114;-86
2023/01/09 11:11:06;;;;;;;4.65;1.02;;;;;;;7.63;84.84;98081.09;4990399;28;20177;-84
2023/01/09 11:13:33;;;;;;;7.88;1.02;;;;;;;7.68;83.85;98081.84;4973170;28;20117;-84
2023/01/09 11:16:13;;;;;;;4.78;1.50;;;;;;;7.69;83.82;98090.78;4990313;28;20046;-85
2023/01/09 11:18:47;;;;;;;10.27;1.20;;;;;;;7.67;83.08;98082.09;4990596;28;20022;-85
2023/01/09 11:21:30;;;;;;;4.05;0.60;;;;;;;7.52;83.15;98089.31;4990294;28;20049;-85
2023/01/09 11:24:18;;;;;;;2.67;0.80;;;;;;;7.59;84.01;98088.97;4973406;28;20034;-87
2023/01/09 11:26:44;;;;;;;3.25;0.95;;;;;;;7.70;83.88;98084.25;4987084;28;20480;-86
2023/01/09 11:29:15;;;;;;;3.85;1.00;;;;;;;7.80;83.66;98077.91;4990196;28;20034;-85
2023/01/09 11:31:50;;;;;;;6.07;1.00;;;;;;;7.79;82.90;98084.47;4989898;28;20484;-87
2023/01/09 11:34:18;;;;;;;3.22;0.85;;;;;;;7.82;82.32;98089.28;4989910;28;20050;-85
2023/01/09 11:36:44;;;;;;;5.78;0.93;;;;;;;7.82;81.71;98090.09;4987193;28;20062;-85
2023/01/09 11:39:28;;;;;;;4.32;0.80;;;;;;;7.87;81.29;98094.66;4990166;28;20048;-82
2023/01/09 11:41:59;;;;;;;5.95;1.55;;;;;;;7.90;81.28;98098.69;4989566;28;20178;-85
2023/01/09 11:44:26;;;;;;;1.98;0.60;;;;;;;7.83;81.19;98099.84;4989214;28;20073;-86
2023/01/09 11:46:51;;;;;;;2.05;0.70;;;;;;;7.93;81.10;98098.16;4988826;28;20389;-87
2023/01/09 11:49:26;;;;;;;2.97;0.95;;;;;;;7.82;80.89;98098.25;4990406;28;20416;-86
2023/01/09 11:52:15;;;;;;;3.50;0.93;;;;;;;7.90;80.89;98104.13;4989550;28;20046;-87
2023/01/09 11:55:04;;;;;;;3.47;1.00;;;;;;;8.00;80.74;98101.31;4972453;28;20041;-85
2023/01/09 11:57:30;;;;;;;3.85;1.42;;;;;;;7.69;80.26;98110.56;4989264;28;20054;-85
2023/01/09 12:00:00;;;;;;;9.18;1.55;;;;;;;7.76;80.71;98104.00;4987727;28;20066;-85